createdAt,value
2018-08-13T00:00:37.278Z,48.40
2018-08-13T00:03:05.581Z,48.70
2018-08-13T00:05:33.557Z,48.70
2018-08-13T00:08:02.400Z,48.60
2018-08-13T00:10:30.430Z,48.60
2018-08-13T00:12:58.496Z,48.60
2018-08-13T00:15:26.468Z,48.80
2018-08-13T00:17:54.518Z,48.80
2018-08-13T00:20:22.544Z,48.70
2018-08-13T00:22:50.511Z,48.40
2018-08-13T00:25:18.610Z,48.00
2018-08-13T00:27:46.625Z,47.70
2018-08-13T00:30:14.588Z,48.40
2018-08-13T00:32:42.886Z,47.90
2018-08-13T00:35:10.858Z,48.00
2018-08-13T00:37:38.891Z,48.20
2018-08-13T00:40:09.567Z,48.40
2018-08-13T00:42:37.620Z,48.40
2018-08-13T00:45:06.878Z,48.30
2018-08-13T00:47:34.850Z,48.30
2018-08-13T00:50:02.904Z,48.50
2018-08-13T00:52:31.154Z,48.60
2018-08-13T00:54:59.117Z,48.70
2018-08-13T00:57:27.084Z,48.70
2018-08-13T00:59:55.068Z,48.70
2018-08-13T01:02:23.052Z,48.90
2018-08-13T01:04:51.105Z,49.00
2018-08-13T01:07:19.089Z,49.10
2018-08-13T01:09:47.065Z,49.30
2018-08-13T01:12:15.039Z,49.20
2018-08-13T01:14:43.083Z,49.10
2018-08-13T01:17:11.036Z,48.70
2018-08-13T01:19:39.124Z,48.70
2018-08-13T01:22:07.100Z,48.70
2018-08-13T01:24:35.073Z,48.60
2018-08-13T01:27:03.055Z,48.50
2018-08-13T01:29:31.344Z,48.50
2018-08-13T01:31:59.376Z,48.80
2018-08-13T01:34:27.439Z,49.20
2018-08-13T01:36:55.424Z,48.40
2018-08-13T01:39:23.387Z,48.50
2018-08-13T01:41:51.358Z,48.60
2018-08-13T01:44:19.344Z,48.60
2018-08-13T01:46:47.355Z,48.60
2018-08-13T01:49:15.323Z,48.50
2018-08-13T01:51:43.563Z,48.50
2018-08-13T01:54:18.072Z,48.30
2018-08-13T01:56:46.044Z,48.00
2018-08-13T01:59:14.340Z,48.30
2018-08-13T02:01:42.438Z,48.50
2018-08-13T02:04:10.368Z,48.50
2018-08-13T02:06:38.345Z,48.50
2018-08-13T02:09:08.324Z,48.60
2018-08-13T02:11:36.279Z,48.60
2018-08-13T02:14:04.941Z,48.60
2018-08-13T02:16:32.956Z,48.40
2018-08-13T02:19:00.908Z,48.70
2018-08-13T02:21:28.931Z,49.20
2018-08-13T02:23:57.067Z,49.20
2018-08-13T02:26:25.124Z,48.90
2018-08-13T02:28:53.168Z,48.70
2018-08-13T02:31:21.170Z,49.00
2018-08-13T02:33:49.183Z,49.30
2018-08-13T02:36:17.288Z,49.40
2018-08-13T02:38:45.248Z,49.20
2018-08-13T02:41:13.250Z,49.00
2018-08-13T02:43:41.240Z,49.00
2018-08-13T02:46:09.295Z,48.90
2018-08-13T02:48:37.632Z,49.00
2018-08-13T02:51:05.714Z,49.10
2018-08-13T02:53:33.711Z,49.00
2018-08-13T02:56:01.955Z,49.50
2018-08-13T02:58:29.901Z,49.00
2018-08-13T03:00:57.862Z,49.00
2018-08-13T03:03:25.853Z,49.00
2018-08-13T03:06:00.675Z,49.20
2018-08-13T03:08:28.992Z,49.20
2018-08-13T03:10:56.943Z,49.20
2018-08-13T03:13:24.904Z,49.40
2018-08-13T03:15:52.887Z,49.50
2018-08-13T03:18:21.091Z,49.40
2018-08-13T03:20:49.033Z,49.40
2018-08-13T03:23:17.027Z,49.20
2018-08-13T03:25:45.037Z,49.30
2018-08-13T03:28:12.987Z,49.30
2018-08-13T03:30:40.994Z,49.30
2018-08-13T03:33:08.955Z,49.40
2018-08-13T03:35:37.335Z,49.40
2018-08-13T03:38:05.372Z,49.30
2018-08-13T03:40:33.353Z,49.40
2018-08-13T03:43:01.319Z,49.80
2018-08-13T03:45:29.268Z,50.00
2018-08-13T03:47:57.251Z,50.00
2018-08-13T03:50:25.217Z,50.10
2018-08-13T03:52:53.175Z,50.20
2018-08-13T03:55:21.158Z,50.10
2018-08-13T03:57:49.157Z,50.10
2018-08-13T04:00:17.163Z,50.20
2018-08-13T04:02:45.215Z,50.20
2018-08-13T04:05:14.118Z,50.40
2018-08-13T04:07:42.102Z,50.40
2018-08-13T04:10:11.666Z,51.30
2018-08-13T04:12:41.496Z,50.70
2018-08-13T04:15:10.870Z,51.10
2018-08-13T04:17:45.827Z,51.20
2018-08-13T04:20:14.771Z,51.30
2018-08-13T04:22:43.129Z,51.60
2018-08-13T04:25:11.585Z,51.60
2018-08-13T04:27:40.596Z,51.50
2018-08-13T04:30:11.828Z,51.60
2018-08-13T04:32:39.983Z,51.70
2018-08-13T04:35:08.280Z,51.80
2018-08-13T04:37:36.280Z,51.80
2018-08-13T04:40:06.974Z,51.80
2018-08-13T04:42:35.263Z,51.80
2018-08-13T04:45:03.242Z,51.90
2018-08-13T04:47:31.270Z,51.70
2018-08-13T04:49:59.415Z,51.60
2018-08-13T04:52:27.538Z,51.50
2018-08-13T04:54:55.516Z,51.50
2018-08-13T04:57:23.588Z,51.60
2018-08-13T04:59:53.689Z,51.50
2018-08-13T05:02:21.645Z,51.50
2018-08-13T05:04:49.659Z,51.50
2018-08-13T05:07:17.834Z,51.50
2018-08-13T05:09:45.774Z,51.10
2018-08-13T05:12:13.739Z,51.00
2018-08-13T05:14:42.153Z,51.00
2018-08-13T05:17:10.159Z,50.60
2018-08-13T05:19:38.125Z,50.50
2018-08-13T05:22:06.134Z,50.30
2018-08-13T05:24:34.118Z,50.20
2018-08-13T05:27:02.075Z,50.10
2018-08-13T05:29:30.384Z,50.00
2018-08-13T05:31:58.400Z,49.90
2018-08-13T05:34:26.402Z,49.80
2018-08-13T05:36:54.371Z,49.70
2018-08-13T05:39:22.332Z,49.60
2018-08-13T05:41:50.306Z,49.60
2018-08-13T05:44:18.275Z,49.40
2018-08-13T05:46:46.261Z,49.40
2018-08-13T05:49:14.324Z,49.20
2018-08-13T05:51:42.363Z,49.30
2018-08-13T05:54:10.359Z,49.30
2018-08-13T05:56:38.317Z,49.40
2018-08-13T05:59:06.373Z,49.40
2018-08-13T06:01:34.438Z,49.40
2018-08-13T06:04:02.440Z,49.30
2018-08-13T06:06:30.408Z,49.30
2018-08-13T06:08:58.712Z,49.30
2018-08-13T06:11:26.939Z,49.40
2018-08-13T06:13:54.758Z,49.30
2018-08-13T06:16:22.792Z,49.30
2018-08-13T06:18:50.752Z,49.30
2018-08-13T06:21:18.704Z,49.40
2018-08-13T06:26:20.119Z,49.20
2018-08-13T06:28:48.086Z,48.40
2018-08-13T06:31:16.563Z,49.20
2018-08-13T06:33:44.723Z,49.30
2018-08-13T06:36:12.866Z,49.40
2018-08-13T06:38:41.054Z,49.30
2018-08-13T06:41:09.228Z,49.30
2018-08-13T06:43:37.501Z,49.20
2018-08-13T06:46:05.713Z,49.50
2018-08-13T06:48:33.860Z,49.60
2018-08-13T06:51:01.859Z,49.50
2018-08-13T06:53:29.883Z,49.60
2018-08-13T06:55:57.820Z,49.60
2018-08-13T06:58:25.876Z,49.30
2018-08-13T07:00:53.998Z,49.20
2018-08-13T07:03:22.076Z,49.30
2018-08-13T07:05:50.120Z,49.20
2018-08-13T07:08:18.177Z,49.20
2018-08-13T07:10:46.137Z,49.70
2018-08-13T07:13:14.108Z,49.30
2018-08-13T07:15:42.118Z,49.40
2018-08-13T07:18:10.144Z,49.30
2018-08-13T07:20:38.110Z,49.20
2018-08-13T07:23:06.088Z,49.10
2018-08-13T07:25:34.155Z,49.00
2018-08-13T07:28:02.208Z,48.80
2018-08-13T07:30:30.969Z,48.70
2018-08-13T07:32:58.994Z,48.60
2018-08-13T07:35:26.960Z,48.40
2018-08-13T07:37:55.015Z,48.40
2018-08-13T07:40:22.971Z,48.50
2018-08-13T07:42:51.285Z,48.60
2018-08-13T07:45:19.249Z,48.60
2018-08-13T07:47:47.210Z,48.90
2018-08-13T07:50:15.722Z,48.20
2018-08-13T07:52:43.734Z,48.30
2018-08-13T07:55:12.489Z,48.20
2018-08-13T07:57:41.082Z,48.20
2018-08-13T08:00:11.569Z,48.10
2018-08-13T08:02:46.651Z,48.00
2018-08-13T08:05:14.881Z,47.90
2018-08-13T08:07:43.147Z,47.60
2018-08-13T08:10:13.075Z,47.40
2018-08-13T08:12:41.565Z,47.50
2018-08-13T08:15:13.059Z,47.60
2018-08-13T08:17:41.297Z,47.60
2018-08-13T08:20:09.463Z,47.20
2018-08-13T08:22:37.823Z,47.00
2018-08-13T08:25:08.458Z,46.80
2018-08-13T08:27:36.536Z,46.70
2018-08-13T08:30:05.946Z,47.40
2018-08-13T08:32:33.982Z,46.80
2018-08-13T08:35:01.951Z,46.60
2018-08-13T08:37:29.910Z,46.60
2018-08-13T08:39:57.875Z,46.40
2018-08-13T08:42:25.850Z,46.00
2018-08-13T08:44:53.829Z,45.70
2018-08-13T08:47:21.912Z,45.60
2018-08-13T08:49:49.863Z,45.60
2018-08-13T08:52:17.926Z,45.00
2018-08-13T08:54:45.922Z,45.00
2018-08-13T08:57:13.980Z,44.80
2018-08-13T08:59:41.977Z,44.30
2018-08-13T09:02:09.926Z,44.20
2018-08-13T09:04:38.445Z,43.10
2018-08-13T09:07:06.633Z,43.60
2018-08-13T09:09:34.636Z,43.40
2018-08-13T09:12:02.667Z,43.20
2018-08-13T09:14:30.939Z,43.00
2018-08-13T09:16:58.992Z,42.50
2018-08-13T09:19:38.519Z,42.50
2018-08-13T09:22:18.120Z,42.20
2018-08-13T09:24:57.762Z,41.50
2018-08-13T09:27:37.181Z,41.00
2018-08-13T09:30:16.826Z,41.50
2018-08-13T09:32:56.404Z,41.20
2018-08-13T09:35:26.590Z,41.50
2018-08-13T09:37:55.458Z,41.20
2018-08-13T09:40:23.873Z,40.70
2018-08-13T09:42:52.072Z,40.50
2018-08-13T09:45:19.998Z,40.50
2018-08-13T09:47:48.075Z,40.90
2018-08-13T09:50:17.168Z,40.70
2018-08-13T09:52:45.741Z,40.20
2018-08-13T09:55:14.755Z,38.70
2018-08-13T09:57:43.522Z,39.00
2018-08-13T10:00:17.882Z,39.20
2018-08-13T10:02:46.630Z,38.10
2018-08-13T10:05:14.619Z,37.70
2018-08-13T10:07:43.087Z,38.60
2018-08-13T10:10:11.596Z,38.50
2018-08-13T10:12:40.463Z,38.40
2018-08-13T10:15:09.466Z,38.40
2018-08-13T10:17:37.635Z,37.90
2018-08-13T10:20:07.517Z,37.90
2018-08-13T10:22:35.488Z,37.50
2018-08-13T10:25:04.263Z,37.70
2018-08-13T10:27:32.230Z,38.20
2018-08-13T10:30:00.184Z,38.00
2018-08-13T10:32:28.130Z,37.30
2018-08-13T10:34:56.189Z,37.10
2018-08-13T10:37:24.230Z,37.10
2018-08-13T10:39:52.240Z,37.00
2018-08-13T10:42:20.208Z,36.80
2018-08-13T10:44:48.263Z,35.70
2018-08-13T10:47:16.187Z,35.70
2018-08-13T10:49:44.519Z,35.60
2018-08-13T10:52:12.482Z,35.20
2018-08-13T10:54:40.437Z,35.30
2018-08-13T10:57:08.393Z,35.70
2018-08-13T10:59:36.374Z,35.50
2018-08-13T11:02:04.366Z,34.70
2018-08-13T11:04:32.336Z,34.40
2018-08-13T11:07:00.307Z,34.80
2018-08-13T11:09:28.262Z,34.60
2018-08-13T11:11:56.259Z,34.90
2018-08-13T11:14:24.260Z,34.90
2018-08-13T11:16:52.228Z,35.00
2018-08-13T11:19:20.197Z,34.10
2018-08-13T11:21:48.185Z,33.30
2018-08-13T11:24:16.132Z,33.60
2018-08-13T11:26:44.090Z,33.30
2018-08-13T11:29:12.451Z,32.70
2018-08-13T11:31:40.453Z,32.50
2018-08-13T11:34:08.420Z,31.20
2018-08-13T11:36:36.386Z,31.00
2018-08-13T11:39:07.798Z,30.80
2018-08-13T11:41:35.797Z,30.90
2018-08-13T11:44:07.724Z,31.50
2018-08-13T11:46:36.024Z,31.20
2018-08-13T11:49:04.597Z,31.50
2018-08-13T11:51:32.755Z,31.80
2018-08-13T11:54:00.939Z,31.30
2018-08-13T11:56:28.938Z,31.50
2018-08-13T11:58:56.994Z,31.10
2018-08-13T12:01:24.951Z,30.50
2018-08-13T12:03:53.132Z,31.20
2018-08-13T12:06:21.616Z,31.40
2018-08-13T12:08:49.559Z,30.90
2018-08-13T12:11:17.522Z,30.20
2018-08-13T12:13:45.527Z,30.50
2018-08-13T12:16:13.488Z,29.90
2018-08-13T12:18:41.452Z,29.90
2018-08-13T12:21:09.402Z,29.40
2018-08-13T12:23:37.979Z,29.80
2018-08-13T12:26:06.090Z,29.90
2018-08-13T12:28:34.057Z,29.80
2018-08-13T12:31:02.019Z,29.60
2018-08-13T12:33:30.756Z,29.00
2018-08-13T12:35:58.725Z,29.20
2018-08-13T12:38:26.678Z,29.50
2018-08-13T12:40:54.766Z,30.00
2018-08-13T12:43:22.845Z,30.40
2018-08-13T12:45:50.810Z,30.40
2018-08-13T12:48:19.052Z,30.00
2018-08-13T12:50:47.027Z,30.20
2018-08-13T12:53:15.021Z,30.50
2018-08-13T12:55:43.059Z,30.00
2018-08-13T12:58:11.025Z,29.70
2018-08-13T13:00:43.200Z,29.90
2018-08-13T13:03:11.300Z,29.70
2018-08-13T13:05:39.338Z,29.60
2018-08-13T13:08:07.711Z,30.00
2018-08-13T13:10:36.421Z,30.00
2018-08-13T13:13:04.379Z,29.80
2018-08-13T13:15:32.453Z,28.40
2018-08-13T13:18:00.391Z,28.10
2018-08-13T13:20:28.508Z,28.10
2018-08-13T13:22:56.498Z,28.00
2018-08-13T13:25:24.455Z,28.60
2018-08-13T13:27:52.487Z,27.80
2018-08-13T13:30:20.495Z,28.00
2018-08-13T13:32:48.468Z,28.10
2018-08-13T13:35:17.432Z,28.20
2018-08-13T13:37:45.461Z,28.40
2018-08-13T13:40:15.355Z,28.40
2018-08-13T13:42:43.895Z,27.90
2018-08-13T13:45:12.533Z,27.70
2018-08-13T13:47:40.557Z,27.30
2018-08-13T13:50:10.405Z,27.50
2018-08-13T13:52:38.340Z,27.60
2018-08-13T13:55:06.734Z,27.50
2018-08-13T13:57:34.788Z,27.60
2018-08-13T14:00:02.760Z,27.50
2018-08-13T14:02:30.768Z,27.60
2018-08-13T14:04:58.820Z,27.20
2018-08-13T14:07:26.898Z,27.70
2018-08-13T14:09:54.945Z,28.40
2018-08-13T14:12:22.958Z,28.20
2018-08-13T14:14:50.957Z,28.30
2018-08-13T14:17:18.967Z,27.80
2018-08-13T14:19:46.936Z,27.80
2018-08-13T14:22:14.879Z,27.90
2018-08-13T14:24:43.239Z,27.80
2018-08-13T14:27:11.203Z,27.10
2018-08-13T14:29:39.210Z,27.00
2018-08-13T14:32:10.567Z,27.20
2018-08-13T14:34:38.519Z,27.20
2018-08-13T14:37:06.606Z,27.60
2018-08-13T14:39:34.817Z,28.10
2018-08-13T14:42:03.032Z,28.50
2018-08-13T14:44:31.004Z,28.80
2018-08-13T14:46:58.948Z,28.80
2018-08-13T14:49:27.263Z,29.10
2018-08-13T14:51:55.246Z,29.30
2018-08-13T14:54:23.325Z,29.60
2018-08-13T14:56:51.336Z,29.70
2018-08-13T14:59:19.309Z,29.70
2018-08-13T15:01:47.289Z,29.70
2018-08-13T15:04:15.497Z,30.00
2018-08-13T15:06:43.478Z,31.10
2018-08-13T15:09:11.625Z,31.70
2018-08-13T15:11:40.579Z,32.30
2018-08-13T15:14:15.794Z,32.60
2018-08-13T15:16:43.767Z,32.80
2018-08-13T15:19:12.079Z,33.10
2018-08-13T15:21:40.029Z,33.50
2018-08-13T15:24:07.989Z,33.60
2018-08-13T15:26:36.002Z,34.00
2018-08-13T15:29:04.284Z,34.30
2018-08-13T15:31:32.278Z,34.60
2018-08-13T15:34:00.327Z,35.00
2018-08-13T15:36:28.630Z,35.40
2018-08-13T15:38:56.761Z,35.90
2018-08-13T15:41:24.832Z,36.30
2018-08-13T15:43:52.841Z,36.00
2018-08-13T15:46:20.988Z,36.20
2018-08-13T15:48:48.941Z,36.70
2018-08-13T15:51:17.016Z,36.90
2018-08-13T15:53:45.140Z,37.00
2018-08-13T15:56:13.158Z,37.30
2018-08-13T15:58:42.113Z,37.60
2018-08-13T16:01:10.184Z,37.90
2018-08-13T16:03:38.264Z,38.30
2018-08-13T16:08:34.116Z,38.30
2018-08-13T16:11:02.586Z,39.30
2018-08-13T16:13:30.554Z,39.50
2018-08-13T16:15:58.805Z,39.70
2018-08-13T16:18:26.814Z,40.20
2018-08-13T16:20:54.832Z,40.60
2018-08-13T16:23:22.884Z,40.50
2018-08-13T16:25:50.896Z,41.00
2018-08-13T16:28:18.863Z,41.70
2018-08-13T16:30:46.862Z,41.60
2018-08-13T16:33:15.213Z,41.40
2018-08-13T16:35:43.278Z,42.20
2018-08-13T16:38:11.846Z,41.90
2018-08-13T16:40:40.035Z,42.10
2018-08-13T16:43:08.049Z,42.90
2018-08-13T16:45:36.095Z,43.60
2018-08-13T16:48:04.233Z,44.30
2018-08-13T16:50:33.453Z,44.70
2018-08-13T16:53:01.651Z,45.00
2018-08-13T16:55:30.679Z,44.70
2018-08-13T16:58:00.123Z,45.10
2018-08-13T17:00:29.524Z,45.20
2018-08-13T17:02:57.921Z,44.90
2018-08-13T17:05:26.120Z,44.80
2018-08-13T17:07:54.184Z,45.00
2018-08-13T17:10:23.763Z,45.40
2018-08-13T17:12:52.459Z,45.60
2018-08-13T17:15:20.955Z,45.70
2018-08-13T17:17:50.532Z,45.80
2018-08-13T17:20:23.140Z,46.40
2018-08-13T17:22:51.207Z,46.10
2018-08-13T17:25:19.248Z,46.30
2018-08-13T17:27:49.721Z,46.40
2018-08-13T17:30:21.244Z,46.40
2018-08-13T17:32:50.771Z,46.50
2018-08-13T17:35:21.687Z,46.40
2018-08-13T17:37:49.792Z,46.40
2018-08-13T17:40:20.311Z,46.40
2018-08-13T17:42:48.518Z,46.10
2018-08-13T17:45:16.432Z,46.10
2018-08-13T17:47:44.407Z,46.00
2018-08-13T17:50:14.112Z,46.10
2018-08-13T17:52:42.404Z,46.00
2018-08-13T17:55:11.146Z,46.00
2018-08-13T17:57:39.659Z,46.00
2018-08-13T18:00:11.346Z,46.00
2018-08-13T18:02:39.596Z,46.20
2018-08-13T18:05:09.814Z,46.80
2018-08-13T18:07:38.893Z,46.70
2018-08-13T18:10:09.814Z,46.80
2018-08-13T18:12:38.148Z,47.10
2018-08-13T18:15:09.159Z,47.00
2018-08-13T18:17:37.467Z,47.30
2018-08-13T18:20:06.427Z,48.10
2018-08-13T18:22:34.929Z,47.50
2018-08-13T18:25:02.990Z,47.40
2018-08-13T18:27:31.449Z,47.70
2018-08-13T18:29:59.762Z,47.60
2018-08-13T18:32:27.816Z,47.70
2018-08-13T18:34:56.516Z,48.00
2018-08-13T18:37:24.559Z,48.00
2018-08-13T18:39:52.867Z,47.80
2018-08-13T18:42:20.832Z,48.00
2018-08-13T18:44:48.800Z,48.10
2018-08-13T18:47:17.084Z,48.00
2018-08-13T18:49:45.924Z,48.40
2018-08-13T18:52:14.606Z,48.40
2018-08-13T18:54:42.726Z,48.90
2018-08-13T18:57:10.813Z,49.40
2018-08-13T18:59:38.858Z,49.50
2018-08-13T19:02:06.963Z,49.60
2018-08-13T19:04:34.980Z,49.60
2018-08-13T19:07:03.088Z,49.50
2018-08-13T19:09:31.146Z,50.10
2018-08-13T19:11:59.268Z,50.10
2018-08-13T19:14:27.185Z,50.40
2018-08-13T19:16:55.166Z,50.10
2018-08-13T19:19:23.253Z,50.40
2018-08-13T19:21:55.615Z,50.50
2018-08-13T19:24:23.616Z,50.60
2018-08-13T19:26:51.614Z,50.60
2018-08-13T19:29:19.964Z,50.70
2018-08-13T19:31:48.409Z,50.90
2018-08-13T19:34:16.507Z,51.00
2018-08-13T19:36:44.476Z,51.10
2018-08-13T19:39:13.567Z,51.30
2018-08-13T19:41:42.080Z,52.00
2018-08-13T19:44:10.785Z,51.20
2018-08-13T19:46:38.878Z,51.50
2018-08-13T19:49:06.992Z,51.70
2018-08-13T19:51:35.377Z,52.00
2018-08-13T19:54:03.382Z,52.20
2018-08-13T19:56:31.461Z,52.40
2018-08-13T19:59:00.167Z,52.10
2018-08-13T20:01:28.825Z,52.20
2018-08-13T20:03:57.448Z,52.40
2018-08-13T20:06:26.335Z,52.50
2018-08-13T20:08:54.812Z,52.60
2018-08-13T20:11:23.333Z,52.80
2018-08-13T20:13:51.884Z,52.90
2018-08-13T20:16:21.360Z,53.40
2018-08-13T20:18:49.847Z,53.20
2018-08-13T20:21:17.835Z,53.60
2018-08-13T20:23:45.883Z,53.80
2018-08-13T20:26:14.027Z,53.80
2018-08-13T20:28:42.022Z,54.60
2018-08-13T20:31:10.158Z,54.90
2018-08-13T20:33:38.120Z,54.60
2018-08-13T20:36:07.220Z,54.50
2018-08-13T20:38:35.159Z,54.90
2018-08-13T20:41:03.196Z,54.80
2018-08-13T20:43:31.164Z,55.00
2018-08-13T20:45:59.141Z,55.00
2018-08-13T20:48:27.098Z,55.30
2018-08-13T20:50:55.080Z,55.30
2018-08-13T20:53:23.191Z,55.50
2018-08-13T20:55:51.140Z,55.90
2018-08-13T20:58:19.081Z,55.50
2018-08-13T21:00:47.419Z,56.00
2018-08-13T21:03:15.362Z,55.90
2018-08-13T21:05:43.400Z,55.90
2018-08-13T21:08:11.371Z,55.90
2018-08-13T21:10:39.337Z,56.10
2018-08-13T21:13:07.368Z,56.30
2018-08-13T21:15:35.418Z,56.40
2018-08-13T21:18:03.407Z,56.90
2018-08-13T21:20:31.384Z,56.90
2018-08-13T21:22:59.391Z,57.10
2018-08-13T21:25:27.359Z,57.30
2018-08-13T21:27:55.323Z,57.20
2018-08-13T21:30:23.265Z,57.70
2018-08-13T21:32:51.230Z,57.20
2018-08-13T21:35:21.675Z,57.30
2018-08-13T21:37:49.747Z,57.50
2018-08-13T21:40:17.711Z,57.80
2018-08-13T21:42:45.880Z,58.50
2018-08-13T21:45:13.935Z,57.70
2018-08-13T21:47:41.937Z,57.80
2018-08-13T21:50:14.586Z,58.50
2018-08-13T21:52:42.553Z,58.00
2018-08-13T21:55:10.845Z,58.10
2018-08-13T21:57:39.356Z,58.10
2018-08-13T22:00:13.448Z,58.20
2018-08-13T22:02:41.406Z,58.20
2018-08-13T22:05:09.383Z,58.30
2018-08-13T22:07:37.459Z,58.80
2018-08-13T22:10:07.623Z,59.60
2018-08-13T22:12:35.564Z,58.80
2018-08-13T22:15:13.141Z,58.80
2018-08-13T22:17:41.109Z,58.80
2018-08-13T22:20:09.097Z,58.90
2018-08-13T22:22:37.049Z,58.90
2018-08-13T22:25:07.899Z,59.80
2018-08-13T22:27:35.854Z,59.10
2018-08-13T22:30:05.977Z,59.20
2018-08-13T22:32:34.673Z,59.70
2018-08-13T22:35:02.778Z,59.80
2018-08-13T22:37:30.748Z,59.70
2018-08-13T22:39:58.673Z,59.60
2018-08-13T22:42:26.638Z,59.80
2018-08-13T22:44:54.603Z,59.70
2018-08-13T22:47:22.610Z,59.60
2018-08-13T22:49:50.559Z,59.90
2018-08-13T22:52:18.500Z,59.90
2018-08-13T22:54:46.473Z,59.90
2018-08-13T22:57:14.468Z,60.00
2018-08-13T22:59:43.527Z,60.00
2018-08-13T23:02:11.586Z,59.80
2018-08-13T23:04:39.566Z,59.80
2018-08-13T23:07:07.659Z,60.00
2018-08-13T23:09:35.624Z,60.30
2018-08-13T23:12:07.290Z,60.00
2018-08-13T23:14:35.271Z,60.00
2018-08-13T23:17:03.246Z,59.90
2018-08-13T23:19:31.195Z,60.20
2018-08-13T23:21:59.585Z,60.40
2018-08-13T23:24:27.619Z,60.40
2018-08-13T23:26:55.858Z,60.70
2018-08-13T23:29:23.820Z,60.70
2018-08-13T23:31:51.806Z,60.60
2018-08-13T23:34:19.808Z,60.70
2018-08-13T23:36:48.175Z,60.70
2018-08-13T23:39:16.252Z,60.70
2018-08-13T23:41:44.353Z,60.80
2018-08-13T23:44:12.433Z,61.00
2018-08-13T23:46:40.705Z,61.30
2018-08-13T23:49:08.702Z,61.40
2018-08-13T23:51:36.662Z,61.40
2018-08-13T23:54:04.599Z,62.00
2018-08-13T23:56:32.575Z,61.20
2018-08-13T23:59:00.540Z,61.60
